createdAt,value
2018-06-09T00:01:10.187Z,97617.21
2018-06-09T00:03:39.278Z,97613.36
2018-06-09T00:06:07.990Z,97606.90
2018-06-09T00:08:37.870Z,97605.04
2018-06-09T00:11:06.841Z,97607.93
2018-06-09T00:13:35.858Z,97610.55
2018-06-09T00:16:04.712Z,97617.49
2018-06-09T00:18:33.872Z,97625.81
2018-06-09T00:21:02.608Z,97626.02
2018-06-09T00:23:31.832Z,97619.19
2018-06-09T00:26:00.757Z,97621.67
2018-06-09T00:28:29.497Z,97612.54
2018-06-09T00:30:58.265Z,97619.14
2018-06-09T00:33:26.960Z,97621.92
2018-06-09T00:35:55.643Z,97631.89
2018-06-09T00:38:25.067Z,97626.55
2018-06-09T00:40:53.755Z,97630.66
2018-06-09T00:43:22.502Z,97625.44
2018-06-09T00:45:51.397Z,97638.09
2018-06-09T00:48:20.517Z,97642.06
2018-06-09T00:50:50.192Z,97640.90
2018-06-09T00:53:18.870Z,97630.78
2018-06-09T00:55:47.802Z,97632.19
2018-06-09T00:58:16.605Z,97632.98
2018-06-09T01:00:45.390Z,97633.55
2018-06-09T01:03:14.076Z,97633.55
2018-06-09T01:05:42.886Z,97628.89
2018-06-09T01:08:12.120Z,97625.56
2018-06-09T01:10:41.416Z,97611.62
2018-06-09T01:13:10.136Z,97616.21
2018-06-09T01:15:38.998Z,97615.28
2018-06-09T01:18:07.647Z,97616.41
2018-06-09T01:20:36.762Z,97617.94
2018-06-09T01:23:05.505Z,97617.09
2018-06-09T01:25:34.311Z,97628.45
2018-06-09T01:28:03.196Z,97628.13
2018-06-09T01:30:32.165Z,97624.31
2018-06-09T01:33:01.311Z,97620.90
2018-06-09T01:35:30.261Z,97620.77
2018-06-09T01:37:59.557Z,97631.13
2018-06-09T01:40:29.334Z,97628.17
2018-06-09T01:42:58.224Z,97629.53
2018-06-09T01:45:27.371Z,97617.73
2018-06-09T01:47:56.302Z,97613.69
2018-06-09T01:50:25.128Z,97604.30
2018-06-09T01:52:53.944Z,97611.27
2018-06-09T01:55:23.645Z,97608.55
2018-06-09T01:57:52.656Z,97604.66
2018-06-09T02:00:21.868Z,97599.19
2018-06-09T02:02:51.144Z,97595.53
2018-06-09T02:05:20.103Z,97589.51
2018-06-09T02:07:49.547Z,97592.60
2018-06-09T02:10:18.363Z,97598.88
2018-06-09T02:12:47.181Z,97604.45
2018-06-09T02:15:16.064Z,97609.44
2018-06-09T02:17:44.944Z,97613.84
2018-06-09T02:20:13.739Z,97611.92
2018-06-09T02:22:43.424Z,97609.06
2018-06-09T02:25:12.115Z,97609.14
2018-06-09T02:27:41.270Z,97608.55
2018-06-09T02:30:10.560Z,97620.16
2018-06-09T02:32:39.710Z,97631.88
2018-06-09T02:35:09.220Z,97636.30
2018-06-09T02:37:37.875Z,97629.92
2018-06-09T02:40:07.416Z,97632.56
2018-06-09T02:42:36.811Z,97623.57
2018-06-09T02:45:05.575Z,97613.00
2018-06-09T02:47:34.316Z,97614.69
2018-06-09T02:50:03.061Z,97626.49
2018-06-09T02:52:31.756Z,97620.47
2018-06-09T02:55:00.400Z,97621.39
2018-06-09T02:57:29.139Z,97615.93
2018-06-09T02:59:58.056Z,97615.93
2018-06-09T03:02:26.732Z,97612.59
2018-06-09T03:04:55.736Z,97610.52
2018-06-09T03:07:24.694Z,97599.70
2018-06-09T03:09:53.382Z,97608.09
2018-06-09T03:12:22.106Z,97611.95
2018-06-09T03:14:50.916Z,97616.36
2018-06-09T03:17:19.942Z,97624.30
2018-06-09T03:19:48.757Z,97618.13
2018-06-09T03:22:17.540Z,97614.38
2018-06-09T03:24:46.425Z,97611.46
2018-06-09T03:27:14.976Z,97612.52
2018-06-09T03:29:43.726Z,97619.62
2018-06-09T03:32:12.377Z,97620.30
2018-06-09T03:34:41.607Z,97632.55
2018-06-09T03:37:10.575Z,97636.05
2018-06-09T03:39:39.153Z,97641.62
2018-06-09T03:42:08.249Z,97643.99
2018-06-09T03:51:13.418Z,97652.38
2018-06-09T03:53:42.274Z,97653.38
2018-06-09T03:56:10.945Z,97656.19
2018-06-09T03:58:39.525Z,97658.51
2018-06-09T04:01:08.335Z,97654.72
2018-06-09T04:03:37.203Z,97653.55
2018-06-09T04:06:06.508Z,97654.42
2018-06-09T04:08:35.913Z,97659.52
2018-06-09T04:11:04.510Z,97661.82
2018-06-09T04:13:33.167Z,97666.36
2018-06-09T04:16:02.655Z,97676.80
2018-06-09T04:18:32.810Z,97679.72
2018-06-09T04:21:01.418Z,97676.05
2018-06-09T04:23:30.335Z,97680.75
2018-06-09T04:26:00.023Z,97686.50
2018-06-09T04:28:28.796Z,97677.40
2018-06-09T04:30:57.471Z,97669.88
2018-06-09T04:33:26.222Z,97667.67
2018-06-09T04:35:55.342Z,97677.58
2018-06-09T04:38:23.972Z,97675.16
2018-06-09T04:40:52.945Z,97677.98
2018-06-09T04:43:22.351Z,97688.07
2018-06-09T04:45:51.326Z,97692.25
2018-06-09T04:48:20.016Z,97683.84
2018-06-09T04:50:48.852Z,97683.78
2018-06-09T04:53:18.371Z,97683.62
2018-06-09T04:55:48.261Z,97690.13
2018-06-09T04:58:17.167Z,97684.89
2018-06-09T05:00:45.831Z,97683.22
2018-06-09T05:03:14.404Z,97685.36
2018-06-09T05:05:43.198Z,97690.99
2018-06-09T05:08:12.509Z,97684.14
2018-06-09T05:10:41.346Z,97692.70
2018-06-09T05:13:10.221Z,97695.21
2018-06-09T05:15:39.134Z,97701.55
2018-06-09T05:18:07.771Z,97694.75
2018-06-09T05:20:36.572Z,97703.25
2018-06-09T05:23:05.534Z,97702.16
2018-06-09T05:25:34.164Z,97704.24
2018-06-09T05:28:03.425Z,97701.00
2018-06-09T05:30:32.694Z,97704.71
2018-06-09T05:33:01.748Z,97703.81
2018-06-09T05:35:30.583Z,97707.66
2018-06-09T05:37:59.109Z,97715.89
2018-06-09T05:40:28.023Z,97710.55
2018-06-09T05:42:56.628Z,97724.13
2018-06-09T05:45:25.338Z,97723.84
2018-06-09T05:47:54.291Z,97732.97
2018-06-09T05:50:23.477Z,97733.41
2018-06-09T05:52:52.791Z,97728.86
2018-06-09T05:55:21.547Z,97726.36
2018-06-09T05:57:50.176Z,97724.97
2018-06-09T06:00:19.073Z,97734.68
2018-06-09T06:02:48.605Z,97736.11
2018-06-09T06:05:17.319Z,97735.98
2018-06-09T06:07:45.948Z,97736.56
2018-06-09T06:10:14.887Z,97739.27
2018-06-09T06:12:43.585Z,97737.68
2018-06-09T06:15:12.691Z,97734.47
2018-06-09T06:17:41.793Z,97743.53
2018-06-09T06:20:10.757Z,97746.54
2018-06-09T06:22:39.928Z,97745.84
2018-06-09T06:25:08.598Z,97752.33
2018-06-09T06:27:37.828Z,97734.03
2018-06-09T06:30:06.731Z,97738.08
2018-06-09T06:32:35.472Z,97736.53
2018-06-09T06:35:04.427Z,97741.62
2018-06-09T06:37:33.142Z,97744.05
2018-06-09T06:40:01.948Z,97744.36
2018-06-09T06:42:30.727Z,97750.70
2018-06-09T06:44:59.630Z,97745.38
2018-06-09T06:47:28.887Z,97749.20
2018-06-09T06:49:57.953Z,97741.88
2018-06-09T06:52:26.671Z,97741.88
2018-06-09T06:54:55.344Z,97739.25
2018-06-09T06:57:24.158Z,97742.50
2018-06-09T06:59:52.752Z,97745.16
2018-06-09T07:02:22.092Z,97738.14
2018-06-09T07:04:50.862Z,97742.30
2018-06-09T07:07:19.586Z,97742.30
2018-06-09T07:09:48.233Z,97749.84
2018-06-09T07:12:17.004Z,97752.59
2018-06-09T07:14:46.149Z,97748.06
2018-06-09T07:17:15.333Z,97745.13
2018-06-09T07:19:44.239Z,97747.94
2018-06-09T07:22:13.005Z,97744.55
2018-06-09T07:24:41.722Z,97748.75
2018-06-09T07:27:11.049Z,97753.30
2018-06-09T07:29:39.848Z,97757.24
2018-06-09T07:32:08.788Z,97758.17
2018-06-09T07:34:37.725Z,97759.20
2018-06-09T07:37:06.469Z,97755.84
2018-06-09T07:39:35.529Z,97748.44
2018-06-09T07:42:04.316Z,97745.75
2018-06-09T07:44:33.084Z,97748.27
2018-06-09T07:47:02.284Z,97749.12
2018-06-09T07:49:31.014Z,97750.78
2018-06-09T07:51:59.819Z,97750.91
2018-06-09T07:54:29.029Z,97750.00
2018-06-09T07:56:57.728Z,97740.67
2018-06-09T07:59:26.578Z,97744.77
2018-06-09T08:01:55.593Z,97741.38
2018-06-09T08:04:24.419Z,97744.39
2018-06-09T08:06:53.682Z,97742.64
2018-06-09T08:09:22.668Z,97741.91
2018-06-09T08:11:51.394Z,97742.19
2018-06-09T08:14:20.682Z,97741.20
2018-06-09T08:16:49.490Z,97736.48
2018-06-09T08:19:18.187Z,97742.73
2018-06-09T08:21:47.017Z,97742.03
2018-06-09T08:24:15.961Z,97737.84
2018-06-09T08:26:44.628Z,97736.22
2018-06-09T08:29:13.288Z,97738.97
2018-06-09T08:31:41.974Z,97728.45
2018-06-09T08:34:10.649Z,97729.13
2018-06-09T08:36:39.739Z,97733.75
2018-06-09T08:39:08.819Z,97726.52
2018-06-09T08:41:37.750Z,97735.69
2018-06-09T08:44:06.474Z,97723.39
2018-06-09T08:46:35.628Z,97722.45
2018-06-09T08:49:05.099Z,97721.36
2018-06-09T08:51:33.880Z,97716.32
2018-06-09T08:54:02.660Z,97715.75
2018-06-09T08:56:31.392Z,97713.34
2018-06-09T08:59:00.213Z,97705.64
2018-06-09T09:01:29.075Z,97701.12
2018-06-09T09:03:58.185Z,97703.86
2018-06-09T09:06:27.009Z,97702.50
2018-06-09T09:08:55.863Z,97703.70
2018-06-09T09:11:24.615Z,97702.39
2018-06-09T09:13:53.498Z,97704.25
2018-06-09T09:16:22.462Z,97704.26
2018-06-09T09:18:51.777Z,97703.90
2018-06-09T09:21:20.495Z,97705.86
2018-06-09T09:23:49.419Z,97704.90
2018-06-09T09:26:18.474Z,97709.31
2018-06-09T09:28:47.729Z,97716.47
2018-06-09T09:31:16.650Z,97711.53
2018-06-09T09:33:45.282Z,97704.24
2018-06-09T09:36:14.044Z,97709.77
2018-06-09T09:38:42.860Z,97706.82
2018-06-09T09:41:11.760Z,97712.30
2018-06-09T09:43:41.023Z,97709.67
2018-06-09T09:46:10.374Z,97709.04
2018-06-09T09:48:39.523Z,97707.02
2018-06-09T09:51:08.254Z,97704.63
2018-06-09T09:53:37.650Z,97699.48
2018-06-09T09:56:07.180Z,97702.44
2018-06-09T09:58:35.793Z,97696.24
2018-06-09T10:01:04.697Z,97696.16
2018-06-09T10:03:33.491Z,97695.30
2018-06-09T10:06:02.256Z,97695.58
2018-06-09T10:08:30.874Z,97696.69
2018-06-09T10:10:59.433Z,97698.73
2018-06-09T10:13:28.223Z,97694.78
2018-06-09T10:15:56.900Z,97692.43
2018-06-09T10:18:26.405Z,97697.51
2018-06-09T10:20:55.246Z,97694.27
2018-06-09T10:23:24.706Z,97702.88
2018-06-09T10:25:53.826Z,97694.05
2018-06-09T10:28:22.931Z,97693.30
2018-06-09T10:30:51.960Z,97695.94
2018-06-09T10:33:21.606Z,97694.66
2018-06-09T10:35:50.479Z,97700.70
2018-06-09T10:38:19.313Z,97697.95
2018-06-09T10:40:48.105Z,97697.64
2018-06-09T10:43:17.064Z,97699.45
2018-06-09T10:45:46.549Z,97701.67
2018-06-09T10:48:15.954Z,97695.72
2018-06-09T10:50:44.753Z,97694.31
2018-06-09T10:53:13.740Z,97682.95
2018-06-09T10:55:42.648Z,97685.27
2018-06-09T10:58:11.499Z,97677.72
2018-06-09T11:00:40.180Z,97673.95
2018-06-09T11:03:08.994Z,97672.61
2018-06-09T11:05:37.586Z,97667.16
2018-06-09T11:08:06.399Z,97662.55
2018-06-09T11:10:35.179Z,97661.96
2018-06-09T11:13:04.113Z,97662.20
2018-06-09T11:15:33.619Z,97659.76
2018-06-09T11:18:02.280Z,97658.58
2018-06-09T11:20:31.068Z,97654.92
2018-06-09T11:23:00.100Z,97640.74
2018-06-09T11:25:28.736Z,97642.67
2018-06-09T11:27:57.546Z,97639.16
2018-06-09T11:30:26.568Z,97640.85
2018-06-09T11:32:55.337Z,97636.65
2018-06-09T11:35:24.260Z,97635.86
2018-06-09T11:37:53.815Z,97630.94
2018-06-09T11:40:22.624Z,97633.36
2018-06-09T11:42:51.975Z,97623.69
2018-06-09T11:45:20.991Z,97621.98
2018-06-09T11:47:49.774Z,97613.83
2018-06-09T11:50:18.632Z,97610.13
2018-06-09T11:52:47.466Z,97606.31
2018-06-09T11:55:16.341Z,97597.80
2018-06-09T11:57:45.479Z,97599.46
2018-06-09T12:00:15.020Z,97597.23
2018-06-09T12:02:43.710Z,97596.66
2018-06-09T12:05:13.004Z,97601.29
2018-06-09T12:07:42.019Z,97603.57
2018-06-09T12:10:11.580Z,97601.94
2018-06-09T12:12:40.396Z,97597.92
2018-06-09T12:15:09.274Z,97597.77
2018-06-09T12:17:38.230Z,97601.00
2018-06-09T12:20:08.249Z,97600.84
2018-06-09T12:22:37.281Z,97602.62
2018-06-09T12:25:06.837Z,97594.55
2018-06-09T12:27:35.770Z,97604.67
2018-06-09T12:30:04.879Z,97599.98
2018-06-09T12:32:33.620Z,97594.48
2018-06-09T12:35:02.625Z,97594.53
2018-06-09T12:37:32.190Z,97594.52
2018-06-09T12:40:01.130Z,97597.50
2018-06-09T12:42:29.881Z,97601.69
2018-06-09T12:44:58.641Z,97592.20
2018-06-09T12:47:27.384Z,97586.02
2018-06-09T12:49:55.956Z,97589.00
2018-06-09T12:52:24.615Z,97582.04
2018-06-09T12:54:53.590Z,97576.73
2018-06-09T12:57:22.457Z,97573.68
2018-06-09T12:59:51.896Z,97564.59
2018-06-09T13:02:21.329Z,97569.37
2018-06-09T13:04:50.706Z,97564.05
2018-06-09T13:07:19.832Z,97564.18
2018-06-09T13:09:48.946Z,97567.25
2018-06-09T13:12:17.916Z,97564.55
2018-06-09T13:14:47.406Z,97567.61
2018-06-09T13:17:16.154Z,97552.42
2018-06-09T13:19:44.750Z,97553.37
2018-06-09T13:22:13.916Z,97549.28
2018-06-09T13:24:42.594Z,97552.47
2018-06-09T13:27:11.300Z,97558.69
2018-06-09T13:29:40.066Z,97561.81
2018-06-09T13:32:08.970Z,97555.70
2018-06-09T13:34:38.060Z,97558.41
2018-06-09T13:37:07.417Z,97548.74
2018-06-09T13:39:36.715Z,97557.28
2018-06-09T13:42:05.601Z,97549.14
2018-06-09T13:44:35.075Z,97548.58
2018-06-09T13:47:04.176Z,97548.70
2018-06-09T13:49:33.478Z,97543.88
2018-06-09T13:52:02.346Z,97537.93
2018-06-09T13:54:31.080Z,97540.28
2018-06-09T13:57:00.052Z,97542.66
2018-06-09T13:59:28.741Z,97545.69
2018-06-09T14:01:57.864Z,97556.94
2018-06-09T14:04:26.820Z,97563.75
2018-06-09T14:06:56.095Z,97565.44
2018-06-09T14:09:24.999Z,97565.44
2018-06-09T14:11:53.687Z,97569.00
2018-06-09T14:14:23.291Z,97583.61
2018-06-09T14:16:52.791Z,97583.02
2018-06-09T14:19:22.138Z,97586.59
2018-06-09T14:21:52.302Z,97583.71
2018-06-09T14:24:21.732Z,97592.95
2018-06-09T14:26:50.812Z,97591.45
2018-06-09T14:29:19.935Z,97587.21
2018-06-09T14:31:49.141Z,97582.16
2018-06-09T14:34:18.091Z,97579.00
2018-06-09T14:36:46.975Z,97566.80
2018-06-09T14:39:15.867Z,97567.15
2018-06-09T14:41:45.413Z,97575.27
2018-06-09T14:44:14.980Z,97578.68
2018-06-09T14:46:44.562Z,97576.33
2018-06-09T14:49:13.510Z,97571.71
2018-06-09T14:51:42.458Z,97566.60
2018-06-09T14:54:11.276Z,97569.70
2018-06-09T14:56:40.747Z,97566.09
2018-06-09T14:59:10.255Z,97562.00
2018-06-09T15:01:39.560Z,97569.63
2018-06-09T15:04:08.262Z,97572.17
2018-06-09T15:06:37.394Z,97566.31
2018-06-09T15:09:08.826Z,97563.81
2018-06-09T15:11:37.691Z,97551.16
2018-06-09T15:14:07.245Z,97552.64
2018-06-09T15:16:36.086Z,97552.26
2018-06-09T15:19:05.458Z,97547.21
2018-06-09T15:21:34.353Z,97540.76
2018-06-09T15:24:03.011Z,97544.95
2018-06-09T15:26:31.782Z,97548.70
2018-06-09T15:29:01.808Z,97547.30
2018-06-09T15:31:30.730Z,97553.55
2018-06-09T15:33:59.663Z,97547.64
2018-06-09T15:36:28.887Z,97547.23
2018-06-09T15:38:57.797Z,97553.39
2018-06-09T15:41:26.656Z,97554.39
2018-06-09T15:43:55.761Z,97550.28
2018-06-09T15:46:24.917Z,97550.33
2018-06-09T15:48:54.057Z,97547.30
2018-06-09T15:51:22.995Z,97543.95
2018-06-09T15:53:51.837Z,97551.88
2018-06-09T15:56:21.745Z,97554.15
2018-06-09T15:58:50.995Z,97563.12
2018-06-09T16:01:19.747Z,97566.38
2018-06-09T16:03:48.453Z,97576.61
2018-06-09T16:06:17.705Z,97577.99
2018-06-09T16:08:46.883Z,97590.08
2018-06-09T16:11:15.861Z,97589.58
2018-06-09T16:13:44.571Z,97600.27
2018-06-09T16:16:13.613Z,97601.28
2018-06-09T16:18:42.349Z,97599.21
2018-06-09T16:21:11.149Z,97604.20
2018-06-09T16:23:40.196Z,97607.59
2018-06-09T16:26:09.083Z,97607.83
2018-06-09T16:28:37.758Z,97606.50
2018-06-09T16:31:06.956Z,97606.41
2018-06-09T16:33:35.620Z,97611.59
2018-06-09T16:36:04.380Z,97608.83
2018-06-09T16:38:33.422Z,97610.99
2018-06-09T16:41:02.243Z,97610.02
2018-06-09T16:43:31.205Z,97608.45
2018-06-09T16:46:00.511Z,97607.47
2018-06-09T16:48:29.562Z,97616.97
2018-06-09T16:50:58.848Z,97617.55
2018-06-09T16:53:28.058Z,97628.56
2018-06-09T16:55:57.047Z,97626.43
2018-06-09T16:58:26.744Z,97636.68
2018-06-09T17:05:57.522Z,97625.64
2018-06-09T17:08:26.305Z,97624.06
2018-06-09T17:10:55.142Z,97625.27
2018-06-09T17:13:24.695Z,97621.32
2018-06-09T17:15:53.977Z,97622.52
2018-06-09T17:18:22.732Z,97618.95
2018-06-09T17:20:51.507Z,97624.27
2018-06-09T17:23:20.512Z,97629.78
2018-06-09T17:25:49.477Z,97627.39
2018-06-09T17:28:19.172Z,97626.02
2018-06-09T17:30:48.426Z,97624.05
2018-06-09T17:33:16.932Z,97619.52
2018-06-09T17:35:45.958Z,97605.14
2018-06-09T17:38:14.900Z,97603.97
2018-06-09T17:40:43.612Z,97597.07
2018-06-09T17:43:12.476Z,97603.78
2018-06-09T17:45:41.755Z,97601.42
2018-06-09T17:48:11.007Z,97607.94
2018-06-09T17:50:39.808Z,97602.22
2018-06-09T17:53:08.609Z,97594.92
2018-06-09T17:55:37.620Z,97594.71
2018-06-09T17:58:06.542Z,97593.95
2018-06-09T18:00:36.162Z,97595.93
2018-06-09T18:03:04.925Z,97588.62
2018-06-09T18:05:34.508Z,97592.73
2018-06-09T18:08:03.366Z,97607.52
2018-06-09T18:10:32.349Z,97616.44
2018-06-09T18:13:01.223Z,97617.22
2018-06-09T18:15:31.011Z,97614.27
2018-06-09T18:17:59.820Z,97614.03
2018-06-09T18:20:28.799Z,97626.42
2018-06-09T18:22:58.154Z,97626.61
2018-06-09T18:25:26.901Z,97623.65
2018-06-09T18:27:55.628Z,97618.13
2018-06-09T18:30:24.405Z,97618.36
2018-06-09T18:32:53.275Z,97621.51
2018-06-09T18:35:22.202Z,97619.52
2018-06-09T18:37:51.098Z,97625.21
2018-06-09T18:40:20.643Z,97619.45
2018-06-09T18:42:50.133Z,97616.60
2018-06-09T18:45:19.228Z,97615.19
2018-06-09T18:47:47.962Z,97616.20
2018-06-09T18:50:16.613Z,97606.70
2018-06-09T18:52:45.492Z,97611.38
2018-06-09T18:55:14.377Z,97604.44
2018-06-09T18:57:43.155Z,97600.05
2018-06-09T19:00:12.586Z,97610.03
2018-06-09T19:02:41.596Z,97610.97
2018-06-09T19:05:10.338Z,97607.36
2018-06-09T19:07:39.468Z,97608.47
2018-06-09T19:10:08.439Z,97613.75
2018-06-09T19:12:37.323Z,97613.50
2018-06-09T19:15:06.172Z,97617.16
2018-06-09T19:17:34.973Z,97621.06
2018-06-09T19:20:04.489Z,97628.08
2018-06-09T19:22:33.667Z,97630.01
2018-06-09T19:25:02.452Z,97632.30
2018-06-09T19:27:31.414Z,97635.20
2018-06-09T19:30:00.263Z,97638.10
2018-06-09T19:32:29.118Z,97637.37
2018-06-09T19:34:58.044Z,97652.00
2018-06-09T19:37:27.041Z,97652.36
2018-06-09T19:39:55.787Z,97652.11
2018-06-09T19:42:25.423Z,97655.97
2018-06-09T19:44:54.543Z,97669.23
2018-06-09T19:47:24.114Z,97669.82
2018-06-09T19:49:52.954Z,97667.42
2018-06-09T19:52:22.376Z,97675.98
2018-06-09T19:54:51.313Z,97677.19
2018-06-09T19:57:20.319Z,97685.55
2018-06-09T19:59:49.107Z,97682.84
2018-06-09T20:02:18.117Z,97686.95
2018-06-09T20:04:46.806Z,97683.06
2018-06-09T20:07:15.564Z,97680.84
2018-06-09T20:09:44.413Z,97686.61
2018-06-09T20:12:13.398Z,97687.23
2018-06-09T20:14:42.230Z,97686.97
2018-06-09T20:17:11.524Z,97678.38
2018-06-09T20:19:40.328Z,97681.27
2018-06-09T20:22:09.150Z,97681.80
2018-06-09T20:24:38.123Z,97696.23
2018-06-09T20:27:06.856Z,97711.62
2018-06-09T20:29:35.807Z,97706.52
2018-06-09T20:32:05.181Z,97715.59
2018-06-09T20:34:34.119Z,97709.80
2018-06-09T20:37:03.269Z,97702.67
2018-06-09T20:39:32.217Z,97710.53
2018-06-09T20:42:01.081Z,97714.82
2018-06-09T20:44:30.109Z,97721.08
2018-06-09T20:46:59.143Z,97717.46
2018-06-09T20:49:27.914Z,97719.16
2018-06-09T20:51:56.627Z,97723.39
2018-06-09T20:54:25.904Z,97722.06
2018-06-09T20:56:55.124Z,97707.05
2018-06-09T20:59:23.939Z,97714.74
2018-06-09T21:01:52.801Z,97713.52
2018-06-09T21:04:21.509Z,97714.59
2018-06-09T21:06:52.131Z,97709.79
2018-06-09T21:09:20.870Z,97714.48
2018-06-09T21:11:49.774Z,97716.95
2018-06-09T21:14:18.738Z,97712.52
2018-06-09T21:16:47.904Z,97702.72
2018-06-09T21:19:17.519Z,97704.86
2018-06-09T21:21:46.370Z,97696.58
2018-06-09T21:24:15.465Z,97694.02
2018-06-09T21:26:50.607Z,97687.52
2018-06-09T21:29:24.442Z,97698.76
2018-06-09T21:31:53.967Z,97696.24
2018-06-09T21:34:36.129Z,97694.73
2018-06-09T21:37:11.449Z,97686.80
2018-06-09T21:39:45.283Z,97683.58
2018-06-09T21:42:19.264Z,97683.58
2018-06-09T21:44:48.459Z,97682.55
2018-06-09T21:47:17.262Z,97685.09
2018-06-09T21:49:46.000Z,97683.36
2018-06-09T21:52:14.997Z,97684.02
2018-06-09T21:54:43.644Z,97679.34
2018-06-09T21:57:12.355Z,97684.25
2018-06-09T21:59:42.254Z,97697.02
2018-06-09T22:02:11.036Z,97702.06
2018-06-09T22:04:40.148Z,97708.92
2018-06-09T22:07:09.367Z,97712.26
2018-06-09T22:09:38.340Z,97728.27
2018-06-09T22:12:07.953Z,97739.37
2018-06-09T22:14:36.758Z,97742.34
2018-06-09T22:17:05.726Z,97741.82
2018-06-09T22:19:34.689Z,97735.34
2018-06-09T22:22:03.476Z,97736.84
2018-06-09T22:24:32.303Z,97740.02
2018-06-09T22:27:01.398Z,97743.76
2018-06-09T22:29:30.330Z,97733.88
2018-06-09T22:31:59.709Z,97731.45
2018-06-09T22:34:28.529Z,97733.52
2018-06-09T22:36:57.154Z,97746.42
2018-06-09T22:39:25.908Z,97753.20
2018-06-09T22:41:54.679Z,97751.30
2018-06-09T22:44:23.728Z,97749.94
2018-06-09T22:46:52.527Z,97743.09
2018-06-09T22:49:21.317Z,97746.30
2018-06-09T22:51:50.144Z,97747.06
2018-06-09T22:54:19.751Z,97744.03
2018-06-09T22:56:48.782Z,97745.27
2018-06-09T22:59:17.585Z,97747.28
2018-06-09T23:01:46.437Z,97748.34
2018-06-09T23:04:15.473Z,97745.84
2018-06-09T23:06:44.314Z,97751.98
2018-06-09T23:09:13.066Z,97745.14
2018-06-09T23:11:41.879Z,97742.97
2018-06-09T23:14:10.696Z,97743.10
2018-06-09T23:16:39.725Z,97742.10
2018-06-09T23:19:08.728Z,97741.73
2018-06-09T23:21:37.438Z,97745.04
2018-06-09T23:24:06.667Z,97743.00
2018-06-09T23:26:35.643Z,97746.97
2018-06-09T23:29:04.572Z,97744.04
2018-06-09T23:31:33.325Z,97740.73
2018-06-09T23:34:02.513Z,97737.46
2018-06-09T23:36:31.626Z,97728.61
2018-06-09T23:39:00.514Z,97730.45
2018-06-09T23:41:29.408Z,97726.41
2018-06-09T23:43:58.474Z,97727.84
2018-06-09T23:46:27.229Z,97735.05
2018-06-09T23:48:55.922Z,97732.95
2018-06-09T23:51:24.882Z,97728.64
2018-06-09T23:53:53.822Z,97734.88
2018-06-09T23:56:22.565Z,97739.78
2018-06-09T23:58:51.668Z,97734.93
